createdAt,value
2023-07-23T00:01:19.373Z,3.78
2023-07-23T00:06:21.773Z,3.17
2023-07-23T00:11:24.047Z,4.50
2023-07-23T00:16:26.321Z,3.40
2023-07-23T00:21:28.737Z,2.83
2023-07-23T00:26:31.118Z,5.50
2023-07-23T00:31:33.367Z,3.72
2023-07-23T00:36:35.689Z,5.82
2023-07-23T00:41:37.912Z,3.33
2023-07-23T00:46:40.264Z,2.55
2023-07-23T00:51:42.589Z,3.33
2023-07-23T00:56:45.296Z,2.97
2023-07-23T01:01:49.644Z,2.00
2023-07-23T01:06:51.884Z,2.22
2023-07-23T01:11:54.375Z,3.95
2023-07-23T01:16:58.424Z,2.42
2023-07-23T01:22:01.559Z,2.80
2023-07-23T01:27:04.231Z,2.97
2023-07-23T01:32:06.481Z,3.58
2023-07-23T01:37:10.249Z,2.97
2023-07-23T01:42:13.012Z,6.53
2023-07-23T01:47:15.228Z,2.65
2023-07-23T01:52:17.489Z,2.55
2023-07-23T01:57:19.797Z,2.78
2023-07-23T02:02:22.040Z,2.60
2023-07-23T02:07:24.317Z,2.13
2023-07-23T02:12:26.539Z,2.90
2023-07-23T02:17:28.963Z,3.08
2023-07-23T02:22:31.475Z,3.75
2023-07-23T02:27:34.760Z,3.00
2023-07-23T02:32:37.086Z,2.05
2023-07-23T02:37:39.373Z,2.00
2023-07-23T02:42:41.544Z,2.60
2023-07-23T02:47:43.825Z,3.75
2023-07-23T02:52:46.184Z,2.85
2023-07-23T02:57:48.616Z,3.60
2023-07-23T03:02:50.936Z,3.97
2023-07-23T03:07:53.449Z,2.33
2023-07-23T03:12:55.648Z,2.83
2023-07-23T03:17:57.962Z,5.22
2023-07-23T03:23:00.234Z,3.83
2023-07-23T03:28:02.514Z,4.72
2023-07-23T03:33:05.132Z,2.65
2023-07-23T03:38:08.987Z,3.05
2023-07-23T03:43:11.152Z,6.63
2023-07-23T03:48:13.304Z,3.13
2023-07-23T03:53:15.520Z,5.00
2023-07-23T03:58:17.834Z,4.07
2023-07-23T04:03:20.192Z,4.78
2023-07-23T04:08:22.471Z,6.97
2023-07-23T04:13:24.765Z,6.32
2023-07-23T04:18:45.311Z,8.00
2023-07-23T04:23:48.488Z,5.70
2023-07-23T04:28:51.121Z,3.75
2023-07-23T04:33:53.394Z,3.50
2023-07-23T04:38:55.645Z,2.78
2023-07-23T04:43:57.966Z,5.10
2023-07-23T04:49:00.153Z,2.22
2023-07-23T04:54:02.417Z,2.10
2023-07-23T04:59:04.606Z,3.58
2023-07-23T05:04:06.885Z,5.72
2023-07-23T05:09:09.178Z,3.90
2023-07-23T05:14:11.472Z,2.70
2023-07-23T05:19:13.725Z,3.17
2023-07-23T05:24:15.933Z,3.92
2023-07-23T05:29:18.147Z,2.95
2023-07-23T05:34:20.406Z,3.22
2023-07-23T05:39:22.624Z,3.47
2023-07-23T05:44:26.996Z,2.03
2023-07-23T05:49:29.519Z,3.42
2023-07-23T05:54:31.787Z,3.92
2023-07-23T05:59:34.077Z,2.63
2023-07-23T06:04:37.798Z,1.85
2023-07-23T06:09:40.032Z,5.38
2023-07-23T06:14:42.277Z,3.30
2023-07-23T06:19:44.526Z,4.45
2023-07-23T06:24:46.849Z,2.53
2023-07-23T06:29:49.011Z,6.75
2023-07-23T06:34:51.164Z,4.32
2023-07-23T06:39:53.388Z,4.50
2023-07-23T06:44:55.533Z,4.20
2023-07-23T06:49:57.740Z,2.97
2023-07-23T06:54:59.902Z,2.83
2023-07-23T07:00:02.171Z,5.72
2023-07-23T07:05:07.575Z,3.53
2023-07-23T07:10:09.906Z,5.45
2023-07-23T07:15:12.153Z,2.50
2023-07-23T07:20:14.381Z,4.70
2023-07-23T07:25:16.697Z,6.13
2023-07-23T07:30:18.929Z,2.58
2023-07-23T07:35:21.324Z,4.60
2023-07-23T07:40:23.604Z,3.17
2023-07-23T07:45:25.895Z,2.03
2023-07-23T07:50:28.207Z,2.55
2023-07-23T07:55:30.399Z,6.97
2023-07-23T08:00:32.684Z,2.50
2023-07-23T08:05:35.323Z,2.65
2023-07-23T08:10:38.137Z,3.35
2023-07-23T08:15:40.337Z,2.88
2023-07-23T08:20:42.634Z,4.13
2023-07-23T08:25:47.148Z,2.38
2023-07-23T08:30:49.385Z,4.68
2023-07-23T08:35:51.651Z,3.42
2023-07-23T08:40:58.566Z,4.18
2023-07-23T08:46:19.675Z,5.05
2023-07-23T08:51:22.965Z,7.63
2023-07-23T08:56:25.274Z,3.55
2023-07-23T09:01:28.754Z,3.45
2023-07-23T09:06:31.788Z,5.57
2023-07-23T09:11:34.440Z,7.07
2023-07-23T09:16:38.784Z,6.07
2023-07-23T09:21:41.901Z,7.28
2023-07-23T09:26:44.537Z,8.45
2023-07-23T09:31:47.054Z,5.13
2023-07-23T09:36:52.800Z,10.38
2023-07-23T09:42:02.642Z,5.38
2023-07-23T09:47:04.935Z,5.60
2023-07-23T09:52:10.386Z,5.28
2023-07-23T09:57:12.697Z,6.22
2023-07-23T10:02:16.894Z,4.70
2023-07-23T10:07:19.349Z,5.30
2023-07-23T10:12:23.478Z,6.22
2023-07-23T10:17:26.139Z,5.28
2023-07-23T10:22:33.236Z,3.33
2023-07-23T10:27:35.488Z,6.30
2023-07-23T10:32:37.998Z,5.03
2023-07-23T10:37:40.527Z,4.90
2023-07-23T10:42:47.996Z,11.10
2023-07-23T10:48:02.467Z,6.47
2023-07-23T10:53:05.763Z,9.15
2023-07-23T10:58:12.980Z,6.28
2023-07-23T11:03:17.948Z,10.48
2023-07-23T11:08:21.412Z,10.93
2023-07-23T11:13:24.565Z,6.55
2023-07-23T11:18:29.907Z,6.32
2023-07-23T11:23:32.957Z,5.15
2023-07-23T11:28:35.416Z,7.95
2023-07-23T11:33:37.542Z,5.70
2023-07-23T11:38:39.762Z,4.88
2023-07-23T11:43:42.717Z,6.28
2023-07-23T11:48:44.906Z,8.45
2023-07-23T11:53:50.362Z,8.20
2023-07-23T11:58:52.542Z,7.07
2023-07-23T12:03:55.226Z,7.13
2023-07-23T12:08:57.551Z,7.18
2023-07-23T12:14:04.144Z,10.45
2023-07-23T12:19:07.863Z,6.68
2023-07-23T12:24:17.433Z,6.10
2023-07-23T12:29:20.311Z,5.60
2023-07-23T12:34:23.364Z,5.93
2023-07-23T12:39:26.705Z,7.72
2023-07-23T12:44:29.039Z,9.52
2023-07-23T12:49:31.224Z,9.50
2023-07-23T12:54:33.504Z,9.70
2023-07-23T12:59:35.710Z,7.70
2023-07-23T13:04:38.388Z,6.82
2023-07-23T13:09:40.536Z,8.38
2023-07-23T13:14:42.694Z,9.90
2023-07-23T13:19:44.904Z,13.05
2023-07-23T13:24:47.091Z,9.57
2023-07-23T13:29:49.321Z,8.43
2023-07-23T13:34:54.829Z,10.05
2023-07-23T13:39:57.019Z,10.98
2023-07-23T13:44:59.227Z,15.82
2023-07-23T13:50:01.413Z,12.80
2023-07-23T13:55:03.898Z,11.95
2023-07-23T14:00:07.812Z,12.32
2023-07-23T14:05:16.250Z,9.98
2023-07-23T14:10:18.734Z,17.48
2023-07-23T14:15:22.104Z,16.58
2023-07-23T14:20:24.425Z,12.52
2023-07-23T14:25:26.611Z,12.73
2023-07-23T14:30:28.926Z,14.52
2023-07-23T14:35:32.376Z,14.13
2023-07-23T14:40:34.568Z,14.18
2023-07-23T14:45:36.759Z,12.57
2023-07-23T14:50:39.010Z,9.43
2023-07-23T14:55:41.489Z,9.10
2023-07-23T15:00:46.375Z,6.68
2023-07-23T15:05:48.600Z,10.27
2023-07-23T15:10:50.995Z,6.35
2023-07-23T15:15:53.537Z,9.10
2023-07-23T15:20:56.223Z,6.57
2023-07-23T15:26:04.218Z,4.65
2023-07-23T15:31:06.744Z,7.22
2023-07-23T15:36:09.415Z,9.15
2023-07-23T15:41:13.973Z,9.02
2023-07-23T15:46:16.231Z,11.70
2023-07-23T15:51:21.172Z,7.03
2023-07-23T15:56:23.449Z,7.53
2023-07-23T16:01:25.834Z,8.32
2023-07-23T16:06:28.116Z,4.63
2023-07-23T16:11:30.458Z,4.78
2023-07-23T16:16:33.348Z,10.88
2023-07-23T16:21:35.794Z,7.75
2023-07-23T16:26:38.048Z,7.93
2023-07-23T16:31:40.437Z,7.47
2023-07-23T16:36:46.979Z,5.82
2023-07-23T16:41:49.753Z,9.63
2023-07-23T16:46:51.967Z,9.07
2023-07-23T16:51:54.202Z,10.90
2023-07-23T16:56:56.361Z,9.15
2023-07-23T17:01:58.642Z,8.32
2023-07-23T17:07:00.902Z,7.85
2023-07-23T17:12:04.562Z,12.65
2023-07-23T17:17:06.864Z,12.13
2023-07-23T17:22:09.067Z,14.95
2023-07-23T17:27:11.213Z,12.95
2023-07-23T17:32:13.368Z,13.13
2023-07-23T17:37:15.501Z,15.65
2023-07-23T17:42:18.329Z,17.98
2023-07-23T17:47:20.527Z,16.90
2023-07-23T17:52:22.739Z,17.33
2023-07-23T17:57:25.977Z,16.25
2023-07-23T18:02:28.198Z,20.83
2023-07-23T18:07:30.730Z,16.70
2023-07-23T18:12:32.895Z,16.38
2023-07-23T18:17:35.181Z,13.75
2023-07-23T18:22:37.723Z,10.88
2023-07-23T18:27:39.932Z,10.82
2023-07-23T18:32:42.253Z,11.85
2023-07-23T18:37:44.484Z,8.18
2023-07-23T18:42:47.613Z,10.80
2023-07-23T18:47:49.817Z,13.57
2023-07-23T18:52:52.112Z,11.55
2023-07-23T18:57:54.280Z,11.55
2023-07-23T19:02:56.463Z,11.30
2023-07-23T19:07:58.658Z,13.18
2023-07-23T19:13:00.860Z,8.98
2023-07-23T19:18:03.149Z,14.68
2023-07-23T19:23:05.455Z,10.18
2023-07-23T19:28:07.790Z,11.18
2023-07-23T19:33:10.033Z,6.82
2023-07-23T19:38:12.500Z,7.97
2023-07-23T19:43:14.733Z,8.77
2023-07-23T19:48:16.919Z,7.60
2023-07-23T19:53:19.066Z,12.93
2023-07-23T19:58:21.438Z,10.40
2023-07-23T20:03:23.909Z,5.80
2023-07-23T20:08:26.171Z,8.70
2023-07-23T20:13:28.288Z,6.53
2023-07-23T20:18:31.569Z,10.57
2023-07-23T20:23:35.075Z,9.80
2023-07-23T20:28:37.394Z,7.18
2023-07-23T20:33:40.331Z,7.88
2023-07-23T20:38:42.658Z,10.98
2023-07-23T20:43:44.921Z,10.50
2023-07-23T20:48:47.112Z,6.47
2023-07-23T20:53:49.785Z,9.55
2023-07-23T20:58:51.985Z,6.43
2023-07-23T21:03:54.180Z,6.07
2023-07-23T21:08:56.383Z,7.90
2023-07-23T21:13:58.662Z,6.68
2023-07-23T21:19:00.965Z,5.65
2023-07-23T21:24:03.750Z,6.47
2023-07-23T21:29:06.022Z,4.22
2023-07-23T21:34:08.187Z,7.65
2023-07-23T21:39:10.298Z,7.38
2023-07-23T21:44:14.206Z,5.53
2023-07-23T21:49:16.383Z,5.63
2023-07-23T21:54:18.583Z,7.75
2023-07-23T21:59:21.831Z,8.27
2023-07-23T22:04:24.001Z,6.75
2023-07-23T22:09:26.184Z,7.53
2023-07-23T22:14:29.126Z,7.80
2023-07-23T22:19:31.408Z,6.82
2023-07-23T22:24:33.724Z,6.50
2023-07-23T22:29:36.156Z,4.93
2023-07-23T22:34:38.374Z,8.18
2023-07-23T22:39:41.217Z,12.20
2023-07-23T22:44:44.484Z,7.78
2023-07-23T22:49:46.681Z,9.98
2023-07-23T22:54:48.922Z,7.68
2023-07-23T22:59:51.191Z,12.77
2023-07-23T23:04:53.325Z,10.98
2023-07-23T23:09:55.532Z,7.78
2023-07-23T23:14:57.717Z,8.35
2023-07-23T23:20:00.044Z,4.75
2023-07-23T23:25:02.234Z,5.43
2023-07-23T23:30:07.109Z,6.65
2023-07-23T23:35:10.088Z,5.88
2023-07-23T23:40:12.689Z,4.07
2023-07-23T23:45:15.131Z,5.47
2023-07-23T23:50:17.570Z,5.85
2023-07-23T23:55:19.730Z,4.95
